ITY1182 EDDC-LIRN
Flight info
| Callsign | ITY1182 |
|---|---|
| Flight time | 1h 52m |
| Altitude | 36000 |
| Route | ABKIS4W/22 ABKIS Z715 ANELA DCT AMOSA DCT DKB DCT TEDGO/N0445F370 L607 UTABA DCT BEMKI DCT ELMEM DCT DIRAB DCT EVULI DCT ERIKA ERIKA1A |
| Aircraft | A320/M-R/C |
Departure
| Time | 2026-02-18 09:09 |
|---|---|
| Airport | Dresden Airport (EDDC) |
Arrival
| Time | 2026-02-18 11:02 |
|---|---|
| Airport | Naples International Airport (LIRN) |
| Time | Latitude | Longitude | Altitude | Speed | Heading |
|---|---|---|---|---|---|
| 2026-02-18 08:47 | 51.13006 | 13.76812 | 711 ft | 0 kts | 131° |
| 2026-02-18 09:02 | 51.12997 | 13.76829 | 712 ft | 7 kts | 130° |
| 2026-02-18 09:03 | 51.13016 | 13.76892 | 714 ft | 9 kts | 41° |
| 2026-02-18 09:03 | 51.13096 | 13.77009 | 713 ft | 21 kts | 40° |
| 2026-02-18 09:03 | 51.13184 | 13.77081 | 711 ft | 8 kts | 335° |
| 2026-02-18 09:03 | 51.13236 | 13.77022 | 713 ft | 10 kts | 2° |
| 2026-02-18 09:04 | 51.13300 | 13.77094 | 715 ft | 13 kts | 41° |
| 2026-02-18 09:04 | 51.13380 | 13.77203 | 715 ft | 17 kts | 40° |
| 2026-02-18 09:04 | 51.13480 | 13.77340 | 712 ft | 21 kts | 41° |
| 2026-02-18 09:04 | 51.13597 | 13.77501 | 713 ft | 24 kts | 40° |
| 2026-02-18 09:05 | 51.13727 | 13.77681 | 712 ft | 25 kts | 41° |
| 2026-02-18 09:05 | 51.13984 | 13.78032 | 713 ft | 24 kts | 41° |
| 2026-02-18 09:05 | 51.14109 | 13.78211 | 713 ft | 21 kts | 40° |
| 2026-02-18 09:06 | 51.14223 | 13.78355 | 715 ft | 18 kts | 27° |
| 2026-02-18 09:06 | 51.14277 | 13.78341 | 715 ft | 0 kts | 313° |
| 2026-02-18 09:07 | 51.14283 | 13.78331 | 713 ft | 5 kts | 312° |
| 2026-02-18 09:07 | 51.14336 | 13.78233 | 715 ft | 17 kts | 311° |
| 2026-02-18 09:07 | 51.14377 | 13.78090 | 717 ft | 9 kts | 245° |
| 2026-02-18 09:07 | 51.14349 | 13.78055 | 715 ft | 2 kts | 221° |
| 2026-02-18 09:08 | 51.14240 | 13.77907 | 712 ft | 53 kts | 220° |
| 2026-02-18 09:08 | 51.13789 | 13.77283 | 715 ft | 117 kts | 220° |
| 2026-02-18 09:09 | 51.13028 | 13.76240 | 726 ft | 167 kts | 220° |
| 2026-02-18 09:09 | 51.11244 | 13.73807 | 2001 ft | 168 kts | 223° |
| 2026-02-18 09:09 | 51.10364 | 13.72509 | 2500 ft | 179 kts | 224° |
| 2026-02-18 09:10 | 51.09425 | 13.71118 | 3024 ft | 188 kts | 223° |
| 2026-02-18 09:10 | 51.08445 | 13.69684 | 3605 ft | 195 kts | 223° |
| 2026-02-18 09:10 | 51.07405 | 13.68180 | 4080 ft | 210 kts | 222° |
| 2026-02-18 09:10 | 51.06293 | 13.66590 | 4674 ft | 218 kts | 222° |
| 2026-02-18 09:11 | 51.05154 | 13.64971 | 5401 ft | 221 kts | 222° |
| 2026-02-18 09:11 | 51.04017 | 13.63366 | 6122 ft | 223 kts | 222° |
| 2026-02-18 09:11 | 51.02849 | 13.61723 | 6843 ft | 226 kts | 222° |
| 2026-02-18 09:11 | 51.01664 | 13.60063 | 7556 ft | 228 kts | 221° |
| 2026-02-18 09:12 | 51.00469 | 13.58386 | 8253 ft | 231 kts | 222° |
| 2026-02-18 09:12 | 50.99267 | 13.56677 | 8946 ft | 233 kts | 222° |
| 2026-02-18 09:12 | 50.98055 | 13.54948 | 9626 ft | 236 kts | 222° |
| 2026-02-18 09:12 | 50.96814 | 13.53184 | 10188 ft | 247 kts | 222° |
| 2026-02-18 09:13 | 50.95503 | 13.51323 | 10717 ft | 257 kts | 222° |
| 2026-02-18 09:13 | 50.92808 | 13.47508 | 12121 ft | 263 kts | 222° |
| 2026-02-18 09:13 | 50.91432 | 13.45568 | 12814 ft | 266 kts | 222° |
| 2026-02-18 09:14 | 50.90021 | 13.43584 | 13502 ft | 269 kts | 222° |
| 2026-02-18 09:14 | 50.88660 | 13.41666 | 14146 ft | 271 kts | 222° |
| 2026-02-18 09:14 | 50.87244 | 13.39668 | 14791 ft | 274 kts | 222° |
| 2026-02-18 09:14 | 50.85814 | 13.37652 | 15430 ft | 277 kts | 222° |
| 2026-02-18 09:15 | 50.84363 | 13.35615 | 16036 ft | 280 kts | 222° |
| 2026-02-18 09:15 | 50.82901 | 13.33562 | 16639 ft | 283 kts | 222° |
| 2026-02-18 09:15 | 50.81424 | 13.31489 | 17219 ft | 285 kts | 222° |
| 2026-02-18 09:15 | 50.79933 | 13.29394 | 17805 ft | 288 kts | 222° |
| 2026-02-18 09:16 | 50.78429 | 13.27281 | 18379 ft | 291 kts | 222° |
| 2026-02-18 09:16 | 50.76910 | 13.25151 | 18937 ft | 293 kts | 222° |
| 2026-02-18 09:16 | 50.75378 | 13.23005 | 19481 ft | 296 kts | 222° |
| 2026-02-18 09:16 | 50.73832 | 13.20839 | 20018 ft | 298 kts | 221° |
| 2026-02-18 09:17 | 50.72270 | 13.18660 | 20547 ft | 301 kts | 221° |
| 2026-02-18 09:17 | 50.69103 | 13.14254 | 21544 ft | 306 kts | 221° |
| 2026-02-18 09:17 | 50.67524 | 13.12054 | 22024 ft | 309 kts | 221° |
| 2026-02-18 09:18 | 50.65909 | 13.09804 | 22506 ft | 311 kts | 221° |
| 2026-02-18 09:18 | 50.64317 | 13.07481 | 22978 ft | 313 kts | 227° |
| 2026-02-18 09:18 | 50.62910 | 13.04856 | 23449 ft | 315 kts | 234° |
| 2026-02-18 09:18 | 50.61733 | 13.01942 | 23882 ft | 317 kts | 242° |
| 2026-02-18 09:19 | 50.60727 | 12.98841 | 24306 ft | 319 kts | 243° |
| 2026-02-18 09:19 | 50.59711 | 12.95724 | 24726 ft | 322 kts | 243° |
| 2026-02-18 09:19 | 50.58678 | 12.92580 | 25140 ft | 324 kts | 243° |
| 2026-02-18 09:19 | 50.57638 | 12.89422 | 25549 ft | 327 kts | 243° |
| 2026-02-18 09:20 | 50.56590 | 12.86242 | 25941 ft | 329 kts | 243° |
| 2026-02-18 09:20 | 50.55533 | 12.83041 | 26340 ft | 331 kts | 243° |
| 2026-02-18 09:20 | 50.54482 | 12.79864 | 26718 ft | 333 kts | 243° |
| 2026-02-18 09:20 | 50.53412 | 12.76632 | 27088 ft | 334 kts | 243° |
| 2026-02-18 09:21 | 50.52335 | 12.73379 | 27440 ft | 337 kts | 243° |
| 2026-02-18 09:21 | 50.50157 | 12.66797 | 28129 ft | 342 kts | 243° |
| 2026-02-18 09:21 | 50.49058 | 12.63483 | 28479 ft | 343 kts | 243° |
| 2026-02-18 09:22 | 50.47950 | 12.60146 | 28819 ft | 345 kts | 243° |
| 2026-02-18 09:22 | 50.46836 | 12.56797 | 29131 ft | 347 kts | 243° |
| 2026-02-18 09:22 | 50.44585 | 12.50041 | 29762 ft | 351 kts | 242° |
| 2026-02-18 09:23 | 50.43450 | 12.46641 | 30102 ft | 351 kts | 242° |
| 2026-02-18 09:23 | 50.42314 | 12.43248 | 30426 ft | 353 kts | 242° |
| 2026-02-18 09:23 | 50.41185 | 12.39877 | 30662 ft | 356 kts | 242° |
| 2026-02-18 09:23 | 50.40027 | 12.36432 | 30932 ft | 358 kts | 242° |
| 2026-02-18 09:24 | 50.38858 | 12.32956 | 31107 ft | 364 kts | 242° |
| 2026-02-18 09:24 | 50.37663 | 12.29411 | 31236 ft | 371 kts | 242° |
| 2026-02-18 09:24 | 50.36453 | 12.25820 | 31466 ft | 375 kts | 242° |
| 2026-02-18 09:24 | 50.35231 | 12.22196 | 31759 ft | 377 kts | 242° |
| 2026-02-18 09:25 | 50.33909 | 12.18641 | 32066 ft | 379 kts | 236° |
| 2026-02-18 09:25 | 50.30909 | 12.11803 | 32648 ft | 383 kts | 236° |
| 2026-02-18 09:25 | 50.29391 | 12.08358 | 32929 ft | 385 kts | 236° |
| 2026-02-18 09:26 | 50.27891 | 12.04952 | 33194 ft | 387 kts | 236° |
| 2026-02-18 09:26 | 50.26363 | 12.01474 | 33455 ft | 388 kts | 236° |
| 2026-02-18 09:26 | 50.24882 | 11.97932 | 33710 ft | 390 kts | 238° |
| 2026-02-18 09:26 | 50.23454 | 11.94321 | 33954 ft | 391 kts | 239° |
| 2026-02-18 09:27 | 50.22047 | 11.90668 | 34183 ft | 393 kts | 239° |
| 2026-02-18 09:27 | 50.20639 | 11.86989 | 34408 ft | 394 kts | 239° |
| 2026-02-18 09:27 | 50.19195 | 11.83338 | 34621 ft | 396 kts | 235° |
| 2026-02-18 09:27 | 50.17482 | 11.79974 | 34830 ft | 397 kts | 227° |
| 2026-02-18 09:28 | 50.15613 | 11.76867 | 35013 ft | 399 kts | 227° |
| 2026-02-18 09:28 | 50.13712 | 11.73713 | 35194 ft | 400 kts | 227° |
| 2026-02-18 09:28 | 50.11802 | 11.70547 | 35384 ft | 401 kts | 227° |
| 2026-02-18 09:28 | 50.09883 | 11.67372 | 35570 ft | 403 kts | 227° |
| 2026-02-18 09:29 | 50.07960 | 11.64184 | 35749 ft | 404 kts | 227° |
| 2026-02-18 09:29 | 50.04065 | 11.57869 | 36001 ft | 405 kts | 225° |
| 2026-02-18 09:29 | 50.02078 | 11.54757 | 36009 ft | 405 kts | 225° |
| 2026-02-18 09:30 | 49.98116 | 11.48632 | 36008 ft | 405 kts | 225° |
| 2026-02-18 09:30 | 49.94129 | 11.42448 | 36009 ft | 405 kts | 225° |
| 2026-02-18 09:31 | 49.89736 | 11.36989 | 36008 ft | 405 kts | 216° |
| 2026-02-18 09:31 | 49.85178 | 11.31839 | 36008 ft | 405 kts | 216° |
| 2026-02-18 09:32 | 49.80621 | 11.26693 | 36008 ft | 405 kts | 216° |
| 2026-02-18 09:32 | 49.76206 | 11.21374 | 36008 ft | 405 kts | 225° |
| 2026-02-18 09:33 | 49.70342 | 11.11985 | 36009 ft | 404 kts | 226° |
| 2026-02-18 09:34 | 49.66437 | 11.05744 | 36008 ft | 404 kts | 226° |
| 2026-02-18 09:34 | 49.62525 | 10.99522 | 36009 ft | 404 kts | 226° |
| 2026-02-18 09:35 | 49.58609 | 10.93299 | 36009 ft | 404 kts | 226° |
| 2026-02-18 09:35 | 49.54691 | 10.87089 | 36009 ft | 404 kts | 226° |
| 2026-02-18 09:36 | 49.50768 | 10.80873 | 36013 ft | 404 kts | 226° |
| 2026-02-18 09:36 | 49.46862 | 10.74698 | 36009 ft | 409 kts | 226° |
| 2026-02-18 09:37 | 49.42832 | 10.68349 | 36009 ft | 420 kts | 225° |
| 2026-02-18 09:37 | 49.38705 | 10.61880 | 37821 ft | 421 kts | 233° |
| 2026-02-18 09:37 | 49.36667 | 10.58698 | 37823 ft | 417 kts | 234° |
| 2026-02-18 09:38 | 49.34638 | 10.55527 | 37599 ft | 415 kts | 234° |
| 2026-02-18 09:38 | 49.32626 | 10.52387 | 37375 ft | 412 kts | 234° |
| 2026-02-18 09:38 | 49.30618 | 10.49251 | 37150 ft | 410 kts | 234° |
| 2026-02-18 09:38 | 49.28652 | 10.46178 | 36932 ft | 408 kts | 234° |
| 2026-02-18 09:39 | 49.26673 | 10.43083 | 36716 ft | 406 kts | 234° |
| 2026-02-18 09:39 | 49.24702 | 10.40006 | 36494 ft | 404 kts | 235° |
| 2026-02-18 09:39 | 49.22740 | 10.36950 | 36280 ft | 401 kts | 235° |
| 2026-02-18 09:39 | 49.20789 | 10.33915 | 36080 ft | 399 kts | 235° |
| 2026-02-18 09:40 | 49.16896 | 10.27890 | 36015 ft | 399 kts | 235° |
| 2026-02-18 09:40 | 49.13148 | 10.21709 | 36011 ft | 392 kts | 241° |
| 2026-02-18 09:41 | 49.08027 | 10.11959 | 36004 ft | 393 kts | 240° |
| 2026-02-18 09:42 | 49.04594 | 10.05473 | 36001 ft | 393 kts | 240° |
| 2026-02-18 09:42 | 49.01176 | 9.99037 | 36000 ft | 393 kts | 240° |
| 2026-02-18 09:43 | 48.97732 | 9.92555 | 35999 ft | 393 kts | 241° |
| 2026-02-18 09:43 | 48.94290 | 9.86084 | 35997 ft | 394 kts | 241° |
| 2026-02-18 09:44 | 48.90835 | 9.79617 | 35994 ft | 394 kts | 241° |
| 2026-02-18 09:44 | 48.87373 | 9.73160 | 35991 ft | 393 kts | 241° |
| 2026-02-18 09:45 | 48.83947 | 9.66770 | 35992 ft | 393 kts | 241° |
| 2026-02-18 09:45 | 48.78768 | 9.57144 | 35995 ft | 392 kts | 241° |
| 2026-02-18 09:46 | 48.75318 | 9.50758 | 35995 ft | 391 kts | 241° |
| 2026-02-18 09:46 | 48.71869 | 9.44382 | 35998 ft | 391 kts | 241° |
| 2026-02-18 09:47 | 48.68422 | 9.38023 | 36001 ft | 390 kts | 241° |
| 2026-02-18 09:47 | 48.66570 | 9.34979 | 36000 ft | 401 kts | 232° |
| 2026-02-18 09:47 | 48.64306 | 9.32475 | 36000 ft | 417 kts | 220° |
| 2026-02-18 09:48 | 48.61590 | 9.30666 | 36001 ft | 437 kts | 207° |
| 2026-02-18 09:48 | 48.58537 | 9.29793 | 36051 ft | 458 kts | 193° |
| 2026-02-18 09:48 | 48.55297 | 9.29997 | 36179 ft | 477 kts | 179° |
| 2026-02-18 09:48 | 48.52041 | 9.31363 | 36293 ft | 493 kts | 167° |
| 2026-02-18 09:49 | 48.48820 | 9.33170 | 36421 ft | 495 kts | 167° |
| 2026-02-18 09:49 | 48.42356 | 9.36800 | 36674 ft | 497 kts | 167° |
| 2026-02-18 09:49 | 48.39115 | 9.38612 | 36799 ft | 497 kts | 167° |
| 2026-02-18 09:50 | 48.35914 | 9.40393 | 36953 ft | 497 kts | 167° |
| 2026-02-18 09:50 | 48.29403 | 9.43998 | 36991 ft | 499 kts | 167° |
| 2026-02-18 09:51 | 48.23209 | 9.49012 | 36990 ft | 515 kts | 147° |
| 2026-02-18 09:51 | 48.17650 | 9.55863 | 37002 ft | 518 kts | 145° |
| 2026-02-18 09:52 | 48.12090 | 9.62704 | 36995 ft | 517 kts | 145° |
| 2026-02-18 09:52 | 48.06792 | 9.69171 | 36998 ft | 517 kts | 145° |
| 2026-02-18 09:53 | 48.01219 | 9.75962 | 36994 ft | 517 kts | 145° |
| 2026-02-18 09:53 | 47.92903 | 9.86096 | 36979 ft | 517 kts | 145° |
| 2026-02-18 09:54 | 47.87329 | 9.92860 | 36975 ft | 517 kts | 145° |
| 2026-02-18 09:54 | 47.81750 | 9.99608 | 36973 ft | 517 kts | 145° |
| 2026-02-18 09:55 | 47.76163 | 10.06334 | 36971 ft | 516 kts | 146° |
| 2026-02-18 09:55 | 47.70578 | 10.13047 | 36969 ft | 517 kts | 146° |
| 2026-02-18 09:56 | 47.64988 | 10.19744 | 36960 ft | 517 kts | 146° |
| 2026-02-18 09:56 | 47.59424 | 10.26391 | 36958 ft | 517 kts | 146° |
| 2026-02-18 09:57 | 47.50723 | 10.35670 | 36950 ft | 512 kts | 152° |
| 2026-02-18 09:58 | 47.44763 | 10.41436 | 36952 ft | 512 kts | 152° |
| 2026-02-18 09:58 | 47.38807 | 10.47179 | 36946 ft | 511 kts | 152° |
| 2026-02-18 09:59 | 47.32894 | 10.52889 | 36944 ft | 510 kts | 152° |
| 2026-02-18 09:59 | 47.26955 | 10.58638 | 36939 ft | 511 kts | 150° |
| 2026-02-18 10:00 | 47.21124 | 10.64673 | 36947 ft | 513 kts | 149° |
| 2026-02-18 10:00 | 47.16344 | 10.69829 | 36943 ft | 512 kts | 148° |
| 2026-02-18 10:01 | 47.10578 | 10.75977 | 36953 ft | 512 kts | 149° |
| 2026-02-18 10:01 | 47.00932 | 10.85991 | 36952 ft | 510 kts | 150° |
| 2026-02-18 10:02 | 46.95131 | 10.91994 | 36943 ft | 509 kts | 150° |
| 2026-02-18 10:02 | 46.89378 | 10.97951 | 36957 ft | 509 kts | 150° |
| 2026-02-18 10:03 | 46.86489 | 11.00941 | 37351 ft | 508 kts | 149° |
| 2026-02-18 10:03 | 46.83591 | 11.03919 | 36935 ft | 508 kts | 152° |
| 2026-02-18 10:03 | 46.77370 | 11.08395 | 36946 ft | 493 kts | 167° |
| 2026-02-18 10:04 | 46.70906 | 11.11797 | 36975 ft | 494 kts | 167° |
| 2026-02-18 10:04 | 46.64497 | 11.15217 | 36997 ft | 494 kts | 167° |
| 2026-02-18 10:05 | 46.54834 | 11.20365 | 37043 ft | 493 kts | 167° |
| 2026-02-18 10:06 | 46.48375 | 11.23782 | 37057 ft | 493 kts | 167° |
| 2026-02-18 10:06 | 46.41938 | 11.27190 | 37062 ft | 492 kts | 167° |
| 2026-02-18 10:07 | 46.35507 | 11.30581 | 37047 ft | 491 kts | 167° |
| 2026-02-18 10:07 | 46.30166 | 11.33381 | 36893 ft | 491 kts | 167° |
| 2026-02-18 10:08 | 46.22696 | 11.37286 | 36890 ft | 492 kts | 167° |
| 2026-02-18 10:08 | 46.16265 | 11.40647 | 36895 ft | 492 kts | 167° |
| 2026-02-18 10:09 | 46.09829 | 11.44005 | 36894 ft | 492 kts | 167° |
| 2026-02-18 10:09 | 46.01243 | 11.48474 | 36904 ft | 492 kts | 167° |
| 2026-02-18 10:10 | 45.93743 | 11.52373 | 36914 ft | 494 kts | 167° |
| 2026-02-18 10:10 | 45.87271 | 11.55726 | 36927 ft | 494 kts | 167° |
| 2026-02-18 10:11 | 45.81888 | 11.58495 | 36939 ft | 495 kts | 167° |
| 2026-02-18 10:11 | 45.75406 | 11.61820 | 36954 ft | 495 kts | 167° |
| 2026-02-18 10:12 | 45.68915 | 11.65147 | 36978 ft | 496 kts | 167° |
| 2026-02-18 10:12 | 45.62418 | 11.68472 | 36999 ft | 497 kts | 167° |
| 2026-02-18 10:13 | 45.52656 | 11.73482 | 37025 ft | 497 kts | 167° |
| 2026-02-18 10:14 | 45.46173 | 11.76779 | 37028 ft | 498 kts | 167° |
| 2026-02-18 10:14 | 45.39636 | 11.80090 | 37035 ft | 498 kts | 167° |
| 2026-02-18 10:15 | 45.33099 | 11.83391 | 37031 ft | 499 kts | 167° |
| 2026-02-18 10:15 | 45.26550 | 11.86701 | 37032 ft | 500 kts | 167° |
| 2026-02-18 10:16 | 45.19995 | 11.90010 | 37013 ft | 500 kts | 167° |
| 2026-02-18 10:16 | 45.13483 | 11.93284 | 37009 ft | 500 kts | 167° |
| 2026-02-18 10:17 | 45.06914 | 11.96577 | 36992 ft | 501 kts | 167° |
| 2026-02-18 10:17 | 44.97048 | 12.01521 | 36995 ft | 502 kts | 167° |
| 2026-02-18 10:18 | 44.90462 | 12.04805 | 36996 ft | 501 kts | 167° |
| 2026-02-18 10:18 | 44.83880 | 12.08069 | 36996 ft | 502 kts | 167° |
| 2026-02-18 10:19 | 44.77341 | 12.11315 | 37000 ft | 502 kts | 167° |
| 2026-02-18 10:19 | 44.70755 | 12.14584 | 37003 ft | 502 kts | 167° |
| 2026-02-18 10:20 | 44.64166 | 12.17832 | 37008 ft | 502 kts | 167° |
| 2026-02-18 10:20 | 44.57579 | 12.21065 | 37009 ft | 502 kts | 167° |
| 2026-02-18 10:21 | 44.47687 | 12.25922 | 37027 ft | 502 kts | 167° |
| 2026-02-18 10:22 | 44.41131 | 12.29130 | 37022 ft | 502 kts | 167° |
| 2026-02-18 10:22 | 44.34529 | 12.32351 | 37036 ft | 503 kts | 167° |
| 2026-02-18 10:23 | 44.27920 | 12.35574 | 37027 ft | 503 kts | 167° |
| 2026-02-18 10:23 | 44.21308 | 12.38794 | 37037 ft | 503 kts | 167° |
| 2026-02-18 10:24 | 44.14690 | 12.41999 | 37030 ft | 504 kts | 167° |
| 2026-02-18 10:24 | 44.08071 | 12.45205 | 37014 ft | 504 kts | 167° |
| 2026-02-18 10:25 | 44.01482 | 12.48384 | 36999 ft | 504 kts | 167° |
| 2026-02-18 10:25 | 43.91534 | 12.53159 | 36999 ft | 505 kts | 167° |
| 2026-02-18 10:26 | 43.84894 | 12.56354 | 37007 ft | 505 kts | 167° |
| 2026-02-18 10:26 | 43.78247 | 12.59545 | 37010 ft | 506 kts | 167° |
| 2026-02-18 10:27 | 43.71646 | 12.62696 | 37021 ft | 506 kts | 167° |
| 2026-02-18 10:27 | 43.64991 | 12.65866 | 37023 ft | 506 kts | 167° |
| 2026-02-18 10:28 | 43.58335 | 12.69028 | 37025 ft | 506 kts | 167° |
| 2026-02-18 10:28 | 43.51668 | 12.72180 | 37027 ft | 507 kts | 167° |
| 2026-02-18 10:29 | 43.41667 | 12.76911 | 37028 ft | 506 kts | 167° |
| 2026-02-18 10:30 | 43.34987 | 12.80063 | 37031 ft | 508 kts | 167° |
| 2026-02-18 10:30 | 43.28351 | 12.83190 | 37038 ft | 508 kts | 167° |
| 2026-02-18 10:31 | 43.21656 | 12.86330 | 37036 ft | 509 kts | 167° |
| 2026-02-18 10:31 | 43.14947 | 12.89471 | 37037 ft | 509 kts | 167° |
| 2026-02-18 10:32 | 43.08232 | 12.92601 | 37030 ft | 509 kts | 167° |
| 2026-02-18 10:32 | 43.01512 | 12.95722 | 37020 ft | 510 kts | 167° |
| 2026-02-18 10:33 | 42.94828 | 12.98824 | 37021 ft | 511 kts | 167° |
| 2026-02-18 10:33 | 42.84720 | 13.03537 | 37021 ft | 512 kts | 167° |
| 2026-02-18 10:34 | 42.77971 | 13.06660 | 37034 ft | 512 kts | 167° |
| 2026-02-18 10:34 | 42.71210 | 13.09769 | 37028 ft | 513 kts | 167° |
| 2026-02-18 10:35 | 42.64448 | 13.12871 | 37044 ft | 513 kts | 167° |
| 2026-02-18 10:35 | 42.57727 | 13.15960 | 37042 ft | 514 kts | 167° |
| 2026-02-18 10:36 | 42.50956 | 13.19064 | 37053 ft | 514 kts | 167° |
| 2026-02-18 10:36 | 42.48664 | 13.20110 | 37051 ft | 514 kts | 167° |
| 2026-02-18 10:37 | 42.34057 | 13.26773 | 35896 ft | 506 kts | 167° |
| 2026-02-18 10:37 | 42.30727 | 13.28292 | 35480 ft | 504 kts | 167° |
| 2026-02-18 10:38 | 42.27419 | 13.29794 | 35064 ft | 501 kts | 167° |
| 2026-02-18 10:38 | 42.24118 | 13.31287 | 34684 ft | 498 kts | 167° |
| 2026-02-18 10:38 | 42.20897 | 13.32796 | 34306 ft | 497 kts | 162° |
| 2026-02-18 10:38 | 42.17762 | 13.34804 | 33884 ft | 500 kts | 153° |
| 2026-02-18 10:39 | 42.14857 | 13.37377 | 33423 ft | 500 kts | 144° |
| 2026-02-18 10:39 | 42.12239 | 13.40439 | 32950 ft | 497 kts | 137° |
| 2026-02-18 10:39 | 42.09739 | 13.43636 | 32535 ft | 493 kts | 137° |
| 2026-02-18 10:39 | 42.07258 | 13.46793 | 32098 ft | 489 kts | 137° |
| 2026-02-18 10:40 | 42.04791 | 13.49914 | 31674 ft | 485 kts | 137° |
| 2026-02-18 10:40 | 42.02337 | 13.53008 | 31244 ft | 481 kts | 137° |
| 2026-02-18 10:40 | 41.99903 | 13.56073 | 30830 ft | 478 kts | 137° |
| 2026-02-18 10:40 | 41.97515 | 13.59076 | 30432 ft | 474 kts | 137° |
| 2026-02-18 10:41 | 41.95118 | 13.62093 | 30011 ft | 470 kts | 137° |
| 2026-02-18 10:41 | 41.90376 | 13.68048 | 29014 ft | 463 kts | 137° |
| 2026-02-18 10:41 | 41.88043 | 13.70971 | 28481 ft | 456 kts | 137° |
| 2026-02-18 10:42 | 41.85741 | 13.73859 | 27972 ft | 450 kts | 137° |
| 2026-02-18 10:42 | 41.83465 | 13.76713 | 27453 ft | 445 kts | 137° |
| 2026-02-18 10:42 | 41.81216 | 13.79532 | 26977 ft | 440 kts | 137° |
| 2026-02-18 10:42 | 41.78992 | 13.82316 | 26484 ft | 435 kts | 137° |
| 2026-02-18 10:43 | 41.76787 | 13.85068 | 25995 ft | 430 kts | 137° |
| 2026-02-18 10:43 | 41.74637 | 13.87745 | 25532 ft | 426 kts | 137° |
| 2026-02-18 10:43 | 41.72478 | 13.90429 | 25079 ft | 420 kts | 137° |
| 2026-02-18 10:43 | 41.70348 | 13.93080 | 24618 ft | 415 kts | 137° |
| 2026-02-18 10:44 | 41.68241 | 13.95705 | 24167 ft | 411 kts | 137° |
| 2026-02-18 10:44 | 41.66161 | 13.98290 | 23725 ft | 406 kts | 137° |
| 2026-02-18 10:44 | 41.64101 | 14.00843 | 23244 ft | 402 kts | 137° |
| 2026-02-18 10:44 | 41.62151 | 14.03467 | 22739 ft | 396 kts | 129° |
| 2026-02-18 10:45 | 41.60487 | 14.06367 | 22245 ft | 390 kts | 124° |
| 2026-02-18 10:45 | 41.57321 | 14.12166 | 21285 ft | 382 kts | 124° |
| 2026-02-18 10:45 | 41.55775 | 14.14969 | 20820 ft | 378 kts | 124° |
| 2026-02-18 10:46 | 41.54225 | 14.17778 | 20358 ft | 374 kts | 124° |
| 2026-02-18 10:46 | 41.52692 | 14.20555 | 19897 ft | 370 kts | 124° |
| 2026-02-18 10:46 | 41.51174 | 14.23304 | 19459 ft | 366 kts | 124° |
| 2026-02-18 10:46 | 41.49671 | 14.26022 | 19011 ft | 362 kts | 124° |
| 2026-02-18 10:47 | 41.48183 | 14.28713 | 18569 ft | 358 kts | 124° |
| 2026-02-18 10:47 | 41.46711 | 14.31373 | 18097 ft | 355 kts | 124° |
| 2026-02-18 10:47 | 41.45254 | 14.34012 | 17612 ft | 352 kts | 124° |
| 2026-02-18 10:47 | 41.43805 | 14.36633 | 17118 ft | 349 kts | 124° |
| 2026-02-18 10:48 | 41.42370 | 14.39224 | 16633 ft | 347 kts | 124° |
| 2026-02-18 10:48 | 41.40943 | 14.41795 | 16162 ft | 344 kts | 124° |
| 2026-02-18 10:48 | 41.39541 | 14.44314 | 15707 ft | 341 kts | 124° |
| 2026-02-18 10:48 | 41.38135 | 14.46845 | 15249 ft | 339 kts | 123° |
| 2026-02-18 10:49 | 41.36739 | 14.49356 | 14784 ft | 336 kts | 123° |
| 2026-02-18 10:49 | 41.33980 | 14.54315 | 13910 ft | 332 kts | 123° |
| 2026-02-18 10:49 | 41.32609 | 14.56774 | 13416 ft | 329 kts | 123° |
| 2026-02-18 10:50 | 41.31252 | 14.59205 | 12931 ft | 326 kts | 123° |
| 2026-02-18 10:50 | 41.29904 | 14.61617 | 12450 ft | 324 kts | 123° |
| 2026-02-18 10:50 | 41.28566 | 14.64013 | 11983 ft | 321 kts | 122° |
| 2026-02-18 10:50 | 41.27240 | 14.66387 | 11515 ft | 319 kts | 122° |
| 2026-02-18 10:51 | 41.25921 | 14.68744 | 11056 ft | 316 kts | 122° |
| 2026-02-18 10:51 | 41.24611 | 14.71082 | 10606 ft | 314 kts | 122° |
| 2026-02-18 10:51 | 41.23310 | 14.73405 | 10163 ft | 312 kts | 122° |
| 2026-02-18 10:51 | 41.22018 | 14.75712 | 9695 ft | 310 kts | 122° |
| 2026-02-18 10:52 | 41.20734 | 14.77993 | 9206 ft | 307 kts | 123° |
| 2026-02-18 10:52 | 41.19167 | 14.79931 | 8720 ft | 310 kts | 147° |
| 2026-02-18 10:52 | 41.17205 | 14.80949 | 8258 ft | 306 kts | 171° |
| 2026-02-18 10:52 | 41.15111 | 14.80948 | 7798 ft | 298 kts | 194° |
| 2026-02-18 10:53 | 41.13231 | 14.80002 | 7396 ft | 284 kts | 217° |
| 2026-02-18 10:53 | 41.10762 | 14.76322 | 6589 ft | 258 kts | 244° |
| 2026-02-18 10:53 | 41.09824 | 14.74322 | 6188 ft | 253 kts | 244° |
| 2026-02-18 10:54 | 41.08900 | 14.72362 | 5765 ft | 248 kts | 243° |
| 2026-02-18 10:54 | 41.07994 | 14.70447 | 5401 ft | 243 kts | 243° |
| 2026-02-18 10:54 | 41.07101 | 14.68577 | 5042 ft | 236 kts | 244° |
| 2026-02-18 10:54 | 41.06242 | 14.66746 | 4681 ft | 231 kts | 244° |
| 2026-02-18 10:55 | 41.05425 | 14.64990 | 4355 ft | 224 kts | 244° |
| 2026-02-18 10:55 | 41.04632 | 14.63292 | 4198 ft | 209 kts | 244° |
| 2026-02-18 10:55 | 41.04513 | 14.63035 | 4143 ft | 207 kts | 244° |
| 2026-02-18 10:55 | 41.04285 | 14.62562 | 4059 ft | 205 kts | 240° |
| 2026-02-18 10:56 | 41.03527 | 14.60989 | 3713 ft | 202 kts | 246° |
| 2026-02-18 10:56 | 41.02788 | 14.59295 | 3655 ft | 231 kts | 246° |
| 2026-02-18 10:56 | 41.01995 | 14.57368 | 3986 ft | 235 kts | 244° |
| 2026-02-18 10:56 | 41.01102 | 14.55604 | 3910 ft | 226 kts | 241° |
| 2026-02-18 10:57 | 41.00261 | 14.53908 | 3766 ft | 215 kts | 243° |
| 2026-02-18 10:57 | 40.98767 | 14.50733 | 3580 ft | 193 kts | 244° |
| 2026-02-18 10:57 | 40.98074 | 14.49250 | 3427 ft | 185 kts | 245° |
| 2026-02-18 10:58 | 40.97406 | 14.47821 | 3163 ft | 180 kts | 245° |
| 2026-02-18 10:58 | 40.96754 | 14.46428 | 2927 ft | 179 kts | 243° |
| 2026-02-18 10:58 | 40.96104 | 14.45041 | 2640 ft | 175 kts | 242° |
| 2026-02-18 10:58 | 40.95456 | 14.43657 | 2523 ft | 177 kts | 241° |
| 2026-02-18 10:59 | 40.94807 | 14.42279 | 2508 ft | 176 kts | 243° |
| 2026-02-18 10:59 | 40.94160 | 14.40897 | 2506 ft | 176 kts | 243° |
| 2026-02-18 10:59 | 40.93516 | 14.39524 | 2383 ft | 170 kts | 242° |
| 2026-02-18 10:59 | 40.92922 | 14.38265 | 2191 ft | 156 kts | 243° |
| 2026-02-18 11:00 | 40.92371 | 14.37095 | 1964 ft | 144 kts | 244° |
| 2026-02-18 11:00 | 40.91850 | 14.35983 | 1674 ft | 141 kts | 243° |
| 2026-02-18 11:00 | 40.91342 | 14.34900 | 1375 ft | 139 kts | 240° |
| 2026-02-18 11:00 | 40.90835 | 14.33822 | 1052 ft | 138 kts | 238° |
| 2026-02-18 11:01 | 40.90332 | 14.32753 | 808 ft | 136 kts | 236° |
| 2026-02-18 11:01 | 40.89340 | 14.30629 | 335 ft | 136 kts | 235° |
| 2026-02-18 11:01 | 40.88849 | 14.29596 | 256 ft | 124 kts | 236° |
| 2026-02-18 11:02 | 40.88478 | 14.28817 | 274 ft | 71 kts | 238° |
| 2026-02-18 11:02 | 40.88318 | 14.28474 | 283 ft | 24 kts | 238° |
| 2026-02-18 11:02 | 40.88264 | 14.28362 | 284 ft | 6 kts | 237° |
| 2026-02-18 11:02 | 40.88230 | 14.28293 | 286 ft | 16 kts | 237° |
| 2026-02-18 11:03 | 40.88158 | 14.28132 | 292 ft | 22 kts | 244° |
| 2026-02-18 11:03 | 40.88083 | 14.28037 | 294 ft | 13 kts | 174° |
| 2026-02-18 11:03 | 40.88054 | 14.28060 | 297 ft | 2 kts | 146° |
| 2026-02-18 11:03 | 40.88043 | 14.28070 | 294 ft | 1 kts | 146° |
| 2026-02-18 11:04 | 40.88032 | 14.28079 | 294 ft | 6 kts | 149° |
| 2026-02-18 11:04 | 40.87978 | 14.28121 | 293 ft | 15 kts | 142° |
| 2026-02-18 11:04 | 40.87952 | 14.28248 | 292 ft | 15 kts | 100° |
| 2026-02-18 11:04 | 40.87939 | 14.28295 | 292 ft | 2 kts | 153° |
| 2026-02-18 11:05 | 40.87927 | 14.28294 | 290 ft | 2 kts | 186° |
| 2026-02-18 11:05 | 40.87879 | 14.28284 | 291 ft | 1 kts | 187° |
| 2026-02-18 11:05 | 40.87877 | 14.28284 | 291 ft | 0 kts | 187° |